CONNECT WITH FLYNQY PILOT TRAINING

Newquay Five Day Forecast

This Weather Widget is provided by the Met Office

EGHQ TAF and METAR

METAR

EGHQ 191050Z 07005KT 020V120 CAVOK 12/01 Q1023

TAF

TAF EGHQ 190801Z 1909/1918 07009KT CAVOK